Home > Products > Valid Products > MTR

000
SAUS44 KMAF 112102 COR
MTR6R6
METAR K6R6 112053Z AUTO 21017G21KT 28/M08 A3006 RMK AO1 SLP155
T02831083 56027





000
SAUS44 KMAF 112059 COR
MTRGDP
METAR KGDP 112051Z AUTO 24014G23KT 10SM CLR 20/M09 A3025 RMK AO2
SLP191 T02001094 56017





000
SAUS44 KMAF 112000 COR
MTR6R6
METAR K6R6 111953Z AUTO 24013KT 28/M08 A3008 RMK AO1 SLP162
T02781078





000
SAUS44 KMAF 111959 COR
MTRGDP
METAR KGDP 111951Z AUTO 23014KT 10SM CLR 18/M09 A3026 RMK AO2 SLP199
T01831089





000
SAUS44 KMAF 111859
MTR6R6
METAR K6R6 111853Z AUTO 22014G22KT 26/M07 A3012 RMK AO1 SLP176
T02611072





000
SAUS44 KMAF 111759
MTR6R6
METAR K6R6 111753Z AUTO 23017KT 25/M08 A3015 RMK AO1 SLP186
T02501078 10250 20078 58005





000
SAUS44 KMAF 111759
MTR6R6
METAR K6R6 111753Z AUTO 23017KT 25/M08 A3015 RMK AO1 SLP186
T02501078 10250 20078 58005





000
SAUS44 KMAF 111652
MTRGDP
METAR KGDP 111651Z AUTO 23010KT 10SM CLR 11/M09 A3030 RMK AO2 SLP226
T01111089





000
SAUS44 KMAF 111554
MTR6R6
METAR K6R6 111553Z AUTO 25014G19KT 21/M07 A3017 RMK AO1 SLP195
T02061072





000
SAUS44 KMAF 111552
MTRGDP
METAR KGDP 111551Z AUTO 23007KT 10SM CLR 09/M09 A3029 RMK AO2 SLP224
T00891089





000
SAUS44 KMAF 111552
MTRGDP
METAR KGDP 111551Z AUTO 23007KT 10SM CLR 09/M09 A3029 RMK AO2 SLP224
T00891089





000
SAUS44 KMAF 111459 COR
MTRGDP
METAR KGDP 111451Z AUTO 26010KT 10SM CLR 10/M09 A3028 RMK AO2 SLP217
T01001094 53011





000
SAUS44 KMAF 111454
MTR6R6
METAR K6R6 111453Z AUTO 27009KT 16/M07 A3016 RMK AO1 SLP194
T01561072 53011





000
SAUS44 KMAF 111454 COR
MTRGDP
METAR KGDP 111451Z AUTO 26010KT 10SM CLR 10/M09 A3028 RMK AO2 SLP217
T01001094 53011





000
SAUS44 KMAF 111454 COR
MTRGDP
METAR KGDP 111451Z AUTO 26010KT 10SM CLR 10/M09 A3028 RMK AO2 SLP217
T01001094 53011





000
SAUS44 KMAF 111454
MTR6R6
METAR K6R6 111453Z AUTO 27009KT 16/M07 A3016 RMK AO1 SLP194
T01561072 53011





000
SAUS44 KMAF 111453 COR
MTRGDP
METAR KGDP 111451Z AUTO 26010KT 10SM CLR 10/M09 A3028 RMK AO2 SLP217
T01001094 53011





000
SAUS44 KMAF 111453 COR
MTRGDP
METAR KGDP 111451Z AUTO 26010KT 10SM CLR 10/M09 A3028 RMK AO2 SLP217
T01001094 53011





000
SAUS44 KMAF 111452
MTRGDP
METAR KGDP 111451Z AUTO 26010KT 10SM CLR 10/M09 A3028 RMK AO2 SLP217
T01001094 53011





000
SAUS44 KMAF 111452
MTRGDP
METAR KGDP 111451Z AUTO 26010KT 10SM CLR 10/M09 A3028 RMK AO2 SLP217
T01001094 53011





000
SAUS44 KMAF 111354
MTR6R6
METAR K6R6 111353Z AUTO 27009KT 11/M08 A3015 RMK AO1 SLP193
T01061078





000
SAUS44 KMAF 111352
MTRGDP
METAR KGDP 111351Z AUTO 25013KT 10SM CLR 08/M10 A3026 RMK AO2 SLP211
T00781100





000
SAUS44 KMAF 111254
MTR6R6
METAR K6R6 111253Z AUTO 27010KT 11/M07 A3014 RMK AO1 SLP186
T01061072





000
SAUS44 KMAF 111254
MTR6R6
METAR K6R6 111253Z AUTO 27010KT 11/M07 A3014 RMK AO1 SLP186
T01061072





000
SAUS44 KMAF 111252
MTRGDP
METAR KGDP 111251Z AUTO 24012KT 10SM CLR 08/M10 A3025 RMK AO2 SLP205
T00781100





000
SAUS44 KMAF 111252
MTRGDP
METAR KGDP 111251Z AUTO 24012KT 10SM CLR 08/M10 A3025 RMK AO2 SLP205
T00781100





000
SAUS44 KMAF 111154
MTR6R6
METAR K6R6 111153Z AUTO 26008KT 08/M07 A3013 RMK AO1 SLP182
T00831067 10106 20056 55001





000
SAUS44 KMAF 111154
MTR6R6
METAR K6R6 111153Z AUTO 26008KT 08/M07 A3013 RMK AO1 SLP182
T00831067 10106 20056 55001





000
SAUS44 KMAF 111152
MTRGDP
METAR KGDP 111151Z AUTO 24009KT 10SM CLR 09/M10 A3024 RMK AO2 SLP194
T00891100 10106 20078 53001





000
SAUS44 KMAF 111152
MTRGDP
METAR KGDP 111151Z AUTO 24009KT 10SM CLR 09/M10 A3024 RMK AO2 SLP194
T00891100 10106 20078 53001





000
SAUS44 KMAF 111054
MTR6R6
METAR K6R6 111053Z AUTO 27006KT 06/M06 A3011 RMK AO1 SLP177
T00561061





000
SAUS44 KMAF 111052
MTRGDP
METAR KGDP 111051Z AUTO 23011G19KT 10SM CLR 08/M10 A3023 RMK AO2
SLP191 T00831100





000
SAUS44 KMAF 110954
MTR6R6
METAR K6R6 110953Z AUTO 28006KT 06/M07 A3012 RMK AO1 SLP179
T00611067





000
SAUS44 KMAF 110954
MTR6R6
METAR K6R6 110953Z AUTO 28006KT 06/M07 A3012 RMK AO1 SLP179
T00611067





000
SAUS44 KMAF 110952
MTRGDP
METAR KGDP 110951Z AUTO 24009KT 10SM CLR 09/M10 A3024 RMK AO2 SLP192
T00891100





000
SAUS44 KMAF 110952
MTRGDP
METAR KGDP 110951Z AUTO 24009KT 10SM CLR 09/M10 A3024 RMK AO2 SLP192
T00891100





000
SAUS44 KMAF 110854
MTR6R6
METAR K6R6 110853Z AUTO 00000KT 09/M05 A3013 RMK AO1 SLP181
T00891050 56013





000
SAUS44 KMAF 110854
MTR6R6
METAR K6R6 110853Z AUTO 00000KT 09/M05 A3013 RMK AO1 SLP181
T00891050 56013





000
SAUS44 KMAF 110852
MTRGDP
METAR KGDP 110851Z AUTO 22010KT 10SM CLR 09/M11 A3024 RMK AO2 SLP193
T00891106 57008





000
SAUS44 KMAF 110852
MTRGDP
METAR KGDP 110851Z AUTO 22010KT 10SM CLR 09/M11 A3024 RMK AO2 SLP193
T00891106 57008





000
SAUS44 KMAF 110754
MTR6R6
METAR K6R6 110753Z AUTO 31004KT 09/M05 A3014 RMK AO1 SLP186
T00891050





000
SAUS44 KMAF 110754
MTR6R6
METAR K6R6 110753Z AUTO 31004KT 09/M05 A3014 RMK AO1 SLP186
T00891050





000
SAUS44 KMAF 110752
MTRGDP
METAR KGDP 110751Z AUTO 23010KT 10SM CLR 09/M11 A3025 RMK AO2 SLP196
T00891106





000
SAUS44 KMAF 110752
MTRGDP
METAR KGDP 110751Z AUTO 23010KT 10SM CLR 09/M11 A3025 RMK AO2 SLP196
T00891106





000
SAUS44 KMAF 110654
MTR6R6
METAR K6R6 110653Z AUTO 34005KT 08/M06 A3015 RMK AO1 SLP191
T00831061





000
SAUS44 KMAF 110652
MTRGDP
METAR KGDP 110651Z AUTO 25013KT 10SM CLR 10/M11 A3026 RMK AO2 SLP199
T01001106 401890044





000
SAUS44 KMAF 110652
MTRGDP
METAR KGDP 110651Z AUTO 25013KT 10SM CLR 10/M11 A3026 RMK AO2 SLP199
T01001106 401890044





000
SAUS44 KMAF 110554
MTR6R6
METAR K6R6 110553Z AUTO 33006KT 10/M05 A3017 RMK AO1 SLP197
T01001050 10239 20094 402560033 56008





000
SAUS44 KMAF 110554
MTR6R6
METAR K6R6 110553Z AUTO 33006KT 10/M05 A3017 RMK AO1 SLP197
T01001050 10239 20094 402560033 56008





000
SAUS44 KMAF 110552
MTRGDP
METAR KGDP 110551Z AUTO 24012KT 10SM CLR 10/M11 A3027 RMK AO2 SLP212
T01001106 10178 20100 58007





000
SAUS44 KMAF 110552
MTRGDP
METAR KGDP 110551Z AUTO 24012KT 10SM CLR 10/M11 A3027 RMK AO2 SLP212
T01001106 10178 20100 58007





000
SAUS44 KMAF 110454
MTR6R6
METAR K6R6 110453Z AUTO VRB03KT 13/M05 A3018 RMK AO1 SLP200
T01281050





000
SAUS44 KMAF 110452
MTRGDP
METAR KGDP 110451Z AUTO 24010KT 10SM CLR 11/M11 A3027 RMK AO2 SLP219
T01111106





000
SAUS44 KMAF 110354
MTR6R6
METAR K6R6 110353Z AUTO 19007KT 14/M05 A3019 RMK AO1 SLP205
T01391050





000
SAUS44 KMAF 110352
MTRGDP
METAR KGDP 110351Z AUTO 26016KT 10SM CLR 12/M11 A3029 RMK AO2 SLP225
T01221106





000
SAUS44 KMAF 110254
MTR6R6
METAR K6R6 110253Z AUTO 14008KT 17/M05 A3020 RMK AO1 SLP207
T01671050 50000





000
SAUS44 KMAF 110254
MTR6R6
METAR K6R6 110253Z AUTO 14008KT 17/M05 A3020 RMK AO1 SLP207
T01671050 50000





000
SAUS44 KMAF 110252
MTRGDP
METAR KGDP 110251Z AUTO 24014KT 10SM CLR 12/M11 A3029 RMK AO2 SLP229
T01221111 53001





000
SAUS44 KMAF 110252
MTRGDP
METAR KGDP 110251Z AUTO 24014KT 10SM CLR 12/M11 A3029 RMK AO2 SLP229
T01221111 53001





000
SAUS44 KMAF 110154
MTR6R6
METAR K6R6 110153Z AUTO 15007KT 16/M07 A3021 RMK AO1 SLP217
T01611067





000
SAUS44 KMAF 110152
MTRGDP
METAR KGDP 110151Z AUTO 24019KT 10SM CLR 13/M11 A3029 RMK AO2 SLP227
T01331111





000
SAUS44 KMAF 110054
MTR6R6
METAR K6R6 110053Z AUTO 16007KT 19/M06 A3020 RMK AO1 SLP211
T01891061





000
SAUS44 KMAF 110054
MTR6R6
METAR K6R6 110053Z AUTO 16007KT 19/M06 A3020 RMK AO1 SLP211
T01891061





000
SAUS44 KMAF 110052
MTRGDP
METAR KGDP 110051Z AUTO 24018KT 10SM CLR 14/M11 A3028 RMK AO2 SLP222
T01441106





000
SAUS44 KMAF 110052
MTRGDP
METAR KGDP 110051Z AUTO 24018KT 10SM CLR 14/M11 A3028 RMK AO2 SLP222
T01441106





000
SAUS44 KMAF 102354
MTR6R6
METAR K6R6 102353Z AUTO 18010KT 24/M06 A3020 RMK AO1 SLP207
T02391061 10256 20206 55007





000
SAUS44 KMAF 102354
MTR6R6
METAR K6R6 102353Z AUTO 18010KT 24/M06 A3020 RMK AO1 SLP207
T02391061 10256 20206 55007





000
SAUS44 KMAF 102352
MTRGDP
METAR KGDP 102351Z AUTO 25017KT 10SM CLR 18/M10 A3028 RMK AO2 PK WND
24026/2255 SLP216 T01781100 10189 20128 56008





000
SAUS44 KMAF 102352
MTRGDP
METAR KGDP 102351Z AUTO 25017KT 10SM CLR 18/M10 A3028 RMK AO2 PK WND
24026/2255 SLP216 T01781100 10189 20128 56008





000
SAUS44 KMAF 102254
MTR6R6
METAR K6R6 102253Z AUTO 20013KT 26/M07 A3020 RMK AO1 SLP205
T02561072





000
SAUS44 KMAF 102254
MTR6R6
METAR K6R6 102253Z AUTO 20013KT 26/M07 A3020 RMK AO1 SLP205
T02561072





000
SAUS44 KMAF 102252
MTRGDP
METAR KGDP 102251Z AUTO 25020KT 10SM CLR 18/M10 A3029 RMK AO2 PK WND
25028/2204 SLP211 T01831100





000
SAUS44 KMAF 102252
MTRGDP
METAR KGDP 102251Z AUTO 25020KT 10SM CLR 18/M10 A3029 RMK AO2 PK WND
25028/2204 SLP211 T01831100





000
SAUS44 KMAF 102155
MTR6R6
METAR K6R6 102153Z AUTO 20014G19KT 25/M07 A3020 RMK AO1 SLP207
T02501072





000
SAUS44 KMAF 102155
MTR6R6
METAR K6R6 102153Z AUTO 20014G19KT 25/M07 A3020 RMK AO1 SLP207
T02501072





000
SAUS44 KMAF 102152
MTRGDP
METAR KGDP 102151Z AUTO 25023G28KT 10SM CLR 19/M11 A3029 RMK AO2 PK
WND 25031/2058 SLP212 T01891106





000
SAUS44 KMAF 102054
MTR6R6
METAR K6R6 102053Z AUTO 20015KT 26/M06 A3022 RMK AO1 SLP211
T02561061 56037





000
SAUS44 KMAF 102052
MTRGDP
METAR KGDP 102051Z AUTO 24025G29KT 10SM CLR 18/M11 A3031 RMK AO2 PK
WND 25031/2031 SLP221 T01781106 56029





000
SAUS44 KMAF 102052
MTRGDP
METAR KGDP 102051Z AUTO 24025G29KT 10SM CLR 18/M11 A3031 RMK AO2 PK
WND 25031/2031 SLP221 T01781106 56029





000
SAUS44 KMAF 101954
MTR6R6
METAR K6R6 101953Z AUTO 21011G20KT 24/M06 A3025 RMK AO1 SLP224
T02391061





000
SAUS44 KMAF 101952
MTRGDP
METAR KGDP 101951Z AUTO 25023KT 10SM CLR 18/M10 A3034 RMK AO2 PK WND
24028/1917 SLP226 T01781100





000
SAUS44 KMAF 101952
MTRGDP
METAR KGDP 101951Z AUTO 25023KT 10SM CLR 18/M10 A3034 RMK AO2 PK WND
24028/1917 SLP226 T01781100





000
SAUS44 KMAF 101854
MTR6R6
METAR K6R6 101853Z AUTO 23010G15KT 190V260 22/M06 A3030 RMK AO1
SLP240 T02221056





000
SAUS44 KMAF 101854
MTR6R6
METAR K6R6 101853Z AUTO 23010G15KT 190V260 22/M06 A3030 RMK AO1
SLP240 T02221056





000
SAUS44 KMAF 101852
MTRGDP
METAR KGDP 101851Z AUTO 24021KT 10SM CLR 17/M08 A3038 RMK AO2 PK WND
24026/1845 SLP249 T01671083





000
SAUS44 KMAF 101852
MTRGDP
METAR KGDP 101851Z AUTO 24021KT 10SM CLR 17/M08 A3038 RMK AO2 PK WND
24026/1845 SLP249 T01671083





000
SAUS44 KMAF 101754
MTR6R6
METAR K6R6 101753Z AUTO 22009KT 21/M06 A3034 RMK AO1 SLP256
T02061056 10206 20033 58000





000
SAUS44 KMAF 101754
MTR6R6
METAR K6R6 101753Z AUTO 22009KT 21/M06 A3034 RMK AO1 SLP256
T02061056 10206 20033 58000





000
SAUS44 KMAF 101752
MTRGDP
METAR KGDP 101751Z AUTO 23016KT 10SM CLR 12/M07 A3041 RMK AO2 SLP267
T01221072 10122 20050 50001





000
SAUS44 KMAF 101752
MTRGDP
METAR KGDP 101751Z AUTO 23016KT 10SM CLR 12/M07 A3041 RMK AO2 SLP267
T01221072 10122 20050 50001





000
SAUS44 KMAF 101654
MTR6R6
METAR K6R6 101653Z AUTO 22006KT 18/M05 A3035 RMK AO1 SLP263
T01781050





000
SAUS44 KMAF 101654
MTR6R6
METAR K6R6 101653Z AUTO 22006KT 18/M05 A3035 RMK AO1 SLP263
T01781050





000
SAUS44 KMAF 101652
MTRGDP
METAR KGDP 101651Z AUTO 23012G16KT 10SM CLR 09/M07 A3042 RMK AO2
SLP280 T00891072





000
SAUS44 KMAF 101554
MTR6R6
METAR K6R6 101553Z AUTO 24009KT 15/M05 A3035 RMK AO1 SLP262
T01501050





000
SAUS44 KMAF 101552
MTRGDP
METAR KGDP 101551Z AUTO 23009KT 10SM CLR 06/M08 A3042 RMK AO2 SLP281
T00611078





000
SAUS44 KMAF 101454
MTR6R6
METAR K6R6 101453Z AUTO 25003KT 12/M05 A3034 RMK AO1 SLP260
T01171050 51010





000
SAUS44 KMAF 101454
MTR6R6
METAR K6R6 101453Z AUTO 25003KT 12/M05 A3034 RMK AO1 SLP260
T01171050 51010





000
SAUS44 KMAF 101452
MTRGDP
METAR KGDP 101451Z AUTO 24010KT 10SM CLR 06/M07 A3041 RMK AO2 SLP277
T00561072 53006





000
SAUS44 KMAF 101354
MTR6R6
METAR K6R6 101353Z AUTO 28004KT 04/M07 A3033 RMK AO1 SLP264
T00391067





000
SAUS44 KMAF 101352
MTRGDP
METAR KGDP 101351Z AUTO 25009KT 10SM CLR 05/M07 A3039 RMK AO2 SLP266
T00501072





000
SAUS44 KMAF 101254
MTR6R6
METAR K6R6 101253Z AUTO 30008KT 07/M06 A3032 RMK AO1 SLP254
T00721061





000
SAUS44 KMAF 101252
MTRGDP
METAR KGDP 101251Z AUTO 25010KT 10SM CLR 05/M07 A3039 RMK AO2 SLP267
T00501072





000
SAUS44 KMAF 101154
MTR6R6
METAR K6R6 101153Z AUTO 30006KT 05/M07 A3030 RMK AO1 SLP247
T00501067 10089 20044 55004





000
SAUS44 KMAF 101154
MTR6R6
METAR K6R6 101153Z AUTO 30006KT 05/M07 A3030 RMK AO1 SLP247
T00501067 10089 20044 55004





000
SAUS44 KMAF 101152
MTRGDP
METAR KGDP 101151Z AUTO 24009KT 10SM CLR 05/M07 A3038 RMK AO2 SLP257
T00501072 10106 20044 55001





000
SAUS44 KMAF 101152
MTRGDP
METAR KGDP 101151Z AUTO 24009KT 10SM CLR 05/M07 A3038 RMK AO2 SLP257
T00501072 10106 20044 55001





000
SAUS44 KMAF 101054
MTR6R6
METAR K6R6 101053Z AUTO 30007KT 06/M07 A3030 RMK AO1 SLP243
T00561067





000
SAUS44 KMAF 100954
MTR6R6
METAR K6R6 100953Z AUTO 29007KT 06/M07 A3030 RMK AO1 SLP244
T00611067





000
SAUS44 KMAF 100952
MTRGDP
METAR KGDP 100951Z AUTO 26009KT 10SM CLR 08/M09 A3038 RMK AO2 SLP248
T00781094





000
SAUS44 KMAF 100854
MTR6R6
METAR K6R6 100853Z AUTO 30008KT 08/M07 A3032 RMK AO1 SLP249
T00831067 56006





000
SAUS44 KMAF 100854
MTR6R6
METAR K6R6 100853Z AUTO 30008KT 08/M07 A3032 RMK AO1 SLP249
T00831067 56006





000
SAUS44 KMAF 100852
MTRGDP
METAR KGDP 100851Z AUTO 25007KT 10SM CLR 08/M08 A3039 RMK AO2 SLP250
T00781083 58002





000
SAUS44 KMAF 100754
MTR6R6
METAR K6R6 100753Z AUTO 29006KT 08/M07 A3032 RMK AO1 SLP249
T00831067





000
SAUS44 KMAF 100752
MTRGDP
METAR KGDP 100751Z AUTO 00000KT 10SM CLR 10/M08 A3039 RMK AO2 SLP252
T01001078





000
SAUS44 KMAF 100752
MTRGDP
METAR KGDP 100751Z AUTO 00000KT 10SM CLR 10/M08 A3039 RMK AO2 SLP252
T01001078





000
SAUS44 KMAF 100655
MTR6R6
METAR K6R6 100653Z AUTO 29008KT 09/M07 A3033 RMK AO1 SLP253
T00891072





000
SAUS44 KMAF 100655
MTR6R6
METAR K6R6 100653Z AUTO 29008KT 09/M07 A3033 RMK AO1 SLP253
T00891072





000
SAUS44 KMAF 100652
MTRGDP
METAR KGDP 100651Z AUTO 08011KT 10SM CLR 07/M07 A3039 RMK AO2 SLP261
T00721067 401670006





000
SAUS44 KMAF 100652
MTRGDP
METAR KGDP 100651Z AUTO 08011KT 10SM CLR 07/M07 A3039 RMK AO2 SLP261
T00721067 401670006





000
SAUS44 KMAF 100554
MTR6R6
METAR K6R6 100553Z AUTO 27007KT 07/M08 A3034 RMK AO1 SLP259
T00721078 10200 20067 402060017 51009





000
SAUS44 KMAF 100554
MTR6R6
METAR K6R6 100553Z AUTO 27007KT 07/M08 A3034 RMK AO1 SLP259
T00721078 10200 20067 402060017 51009





000
SAUS44 KMAF 100552
MTRGDP
METAR KGDP 100551Z AUTO 06014KT 10SM CLR 07/M08 A3040 RMK AO2 SLP267
T00721078 10144 20061 51009





000
SAUS44 KMAF 100552
MTRGDP
METAR KGDP 100551Z AUTO 06014KT 10SM CLR 07/M08 A3040 RMK AO2 SLP267
T00721078 10144 20061 51009





000
SAUS44 KMAF 100454
MTR6R6
METAR K6R6 100453Z AUTO 00000KT 07/M08 A3034 RMK AO1 SLP260
T00671078





000
SAUS44 KMAF 100454
MTR6R6
METAR K6R6 100453Z AUTO 00000KT 07/M08 A3034 RMK AO1 SLP260
T00671078





000
SAUS44 KMAF 100452
MTRGDP
METAR KGDP 100451Z AUTO 05018KT 10SM CLR 07/M08 A3039 RMK AO2 SLP272
T00671083





000
SAUS44 KMAF 100354
MTR6R6
METAR K6R6 100353Z AUTO 07004KT 11/M07 A3032 RMK AO1 SLP254
T01061072





000
SAUS44 KMAF 100354
MTR6R6
METAR K6R6 100353Z AUTO 07004KT 11/M07 A3032 RMK AO1 SLP254
T01061072





000
SAUS44 KMAF 100352
MTRGDP
METAR KGDP 100351Z AUTO 04020KT 10SM CLR 08/M08 A3038 RMK AO2 SLP264
T00831083





000
SAUS44 KMAF 100254
MTR6R6
METAR K6R6 100253Z AUTO VRB04KT 11/M08 A3031 RMK AO1 SLP251
T01061083 53013





000
SAUS44 KMAF 100254
MTR6R6
METAR K6R6 100253Z AUTO VRB04KT 11/M08 A3031 RMK AO1 SLP251
T01061083 53013





000
SAUS44 KMAF 100252
MTRGDP
METAR KGDP 100251Z AUTO 04019KT 10SM CLR 08/M08 A3036 RMK AO2 SLP267
T00831083 51009





000
SAUS44 KMAF 100252
MTRGDP
METAR KGDP 100251Z AUTO 04019KT 10SM CLR 08/M08 A3036 RMK AO2 SLP267
T00831083 51009





000
SAUS44 KMAF 100154
MTR6R6
METAR K6R6 100153Z AUTO 12003KT 13/M08 A3029 RMK AO1 SLP249
T01281078





000
SAUS44 KMAF 100154
MTR6R6
METAR K6R6 100153Z AUTO 12003KT 13/M08 A3029 RMK AO1 SLP249
T01281078





000
SAUS44 KMAF 100152
MTRGDP
METAR KGDP 100151Z AUTO 00000KT 10SM CLR 12/M14 A3036 RMK AO2 SLP262
T01221139





000
SAUS44 KMAF 100152
MTRGDP
METAR KGDP 100151Z AUTO 00000KT 10SM CLR 12/M14 A3036 RMK AO2 SLP262
T01221139





000
SAUS44 KMAF 100054
MTR6R6
METAR K6R6 100053Z AUTO VRB03KT 16/M08 A3027 RMK AO1 SLP242
T01561078





000
SAUS44 KMAF 100054
MTR6R6
METAR K6R6 100053Z AUTO VRB03KT 16/M08 A3027 RMK AO1 SLP242
T01561078





000
SAUS44 KMAF 100052
MTRGDP
METAR KGDP 100051Z AUTO 25005KT 10SM CLR 12/M11 A3035 RMK AO2 SLP256
T01171106





000
SAUS44 KMAF 100052
MTRGDP
METAR KGDP 100051Z AUTO 25005KT 10SM CLR 12/M11 A3035 RMK AO2 SLP256
T01171106





000
SAUS44 KMAF 092354
MTR6R6
METAR K6R6 092353Z AUTO 21005KT 20/M07 A3027 RMK AO1 SLP234
T02001072 10206 20161 55006





000
SAUS44 KMAF 092354
MTR6R6
METAR K6R6 092353Z AUTO 21005KT 20/M07 A3027 RMK AO1 SLP234
T02001072 10206 20161 55006





000
SAUS44 KMAF 092351
MTRGDP
METAR KGDP 092351Z AUTO 24010KT 10SM CLR 14/M11 A3033 RMK AO2 SLP247
T01441106 10167 20100 55001





000
SAUS44 KMAF 092351
MTRGDP
METAR KGDP 092351Z AUTO 24010KT 10SM CLR 14/M11 A3033 RMK AO2 SLP247
T01441106 10167 20100 55001





000
SAUS44 KMAF 092255
MTR6R6
METAR K6R6 092253Z AUTO 19010KT 21/M07 A3026 RMK AO1 SLP233
T02061072





000
SAUS44 KMAF 092252 COR
MTRGDP
METAR KGDP 092251Z AUTO 23014KT 10SM CLR 16/M10 A3033 RMK AO2 SLP240
T01561100





000
SAUS44 KMAF 092251
MTRGDP
METAR KGDP 092251Z AUTO 23014KT 10SM CLR 16/M10 A3033 RMK AO2 SLP240
T01561100





000
SAUS44 KMAF 092155
MTR6R6
METAR K6R6 092153Z AUTO 20009KT 19/M07 A3026 RMK AO1 SLP234
T01941072





000
SAUS44 KMAF 092155
MTR6R6
METAR K6R6 092153Z AUTO 20009KT 19/M07 A3026 RMK AO1 SLP234
T01941072





000
SAUS44 KMAF 092152
MTRGDP
METAR KGDP 092151Z AUTO 24016G20KT 10SM CLR 16/M10 A3032 RMK AO2
SLP236 T01611100





000
SAUS44 KMAF 092152
MTRGDP
METAR KGDP 092151Z AUTO 24016G20KT 10SM CLR 16/M10 A3032 RMK AO2
SLP236 T01611100





000
SAUS44 KMAF 092054
MTR6R6
METAR K6R6 092053Z AUTO VRB05KT 20/M07 A3029 RMK AO1 SLP239
T02001072 56033





000
SAUS44 KMAF 092052
MTRGDP
METAR KGDP 092051Z AUTO 23017KT 10SM CLR 16/M09 A3034 RMK AO2 SLP243
T01611094 58027





000
SAUS44 KMAF 092052
MTRGDP
METAR KGDP 092051Z AUTO 23017KT 10SM CLR 16/M09 A3034 RMK AO2 SLP243
T01611094 58027





000
SAUS44 KMAF 091954
MTR6R6
METAR K6R6 091953Z AUTO 16008KT 20/M07 A3030 RMK AO1 SLP246
T02001067





000
SAUS44 KMAF 091954
MTR6R6
METAR K6R6 091953Z AUTO 16008KT 20/M07 A3030 RMK AO1 SLP246
T02001067





000
SAUS44 KMAF 091952
MTRGDP
METAR KGDP 091951Z AUTO 24012KT 10SM CLR 14/M09 A3037 RMK AO2 SLP263
T01391094





000
SAUS44 KMAF 091854
MTR6R6
METAR K6R6 091853Z AUTO 19007KT 18/M07 A3036 RMK AO1 SLP267
T01781072





000
SAUS44 KMAF 091854
MTR6R6
METAR K6R6 091853Z AUTO 19007KT 18/M07 A3036 RMK AO1 SLP267
T01781072





000
SAUS44 KMAF 091851
MTRGDP
METAR KGDP 091851Z AUTO 24013KT 10SM CLR 12/M09 A3040 RMK AO2 SLP277
T01221094





000
SAUS44 KMAF 091851
MTRGDP
METAR KGDP 091851Z AUTO 24013KT 10SM CLR 12/M09 A3040 RMK AO2 SLP277
T01221094





000
SAUS44 KMAF 091754
MTR6R6
METAR K6R6 091753Z AUTO 19007KT 17/M08 A3039 RMK AO1 SLP278
T01671078 10167 20017 58010





000
SAUS44 KMAF 091752
MTRGDP
METAR KGDP 091751Z AUTO 23006KT 10SM CLR 11/M10 A3043 RMK AO2 SLP290
T01061100 10106 20017 50002





000
SAUS44 KMAF 091654
MTR6R6
METAR K6R6 091653Z AUTO 20006KT 15/M09 A3042 RMK AO1 SLP292
T01501089





000
SAUS44 KMAF 091654
MTR6R6
METAR K6R6 091653Z AUTO 20006KT 15/M09 A3042 RMK AO1 SLP292
T01501089





000
SAUS44 KMAF 091651
MTRGDP
METAR KGDP 091651Z AUTO 00000KT 10SM CLR 08/M11 A3044 RMK AO2 SLP293
T00781106





000
SAUS44 KMAF 091630
MTRGDP
METAR KGDP 091551Z AUTO 00000KT 10SM CLR 07/M11 A3043 RMK AO2 SLP291
T00721106





000
SAUS44 KMAF 091630
MTRGDP
METAR KGDP 091551Z AUTO 00000KT 10SM CLR 07/M11 A3043 RMK AO2 SLP291
T00721106





000
SAUS44 KMAF 091629
MTR6R6
METAR K6R6 091553Z AUTO VRB03KT 12/M09 A3043 RMK AO1 SLP296
T01221089





000
SAUS44 KMAF 091629
MTR6R6
METAR K6R6 091553Z AUTO VRB03KT 12/M09 A3043 RMK AO1 SLP296
T01221089





000
SAUS44 KMAF 091506
MTR6R6
METAR K6R6 091453Z AUTO 25003KT 09/M08 A3042 RMK AO1 SLP293
T00941083 51009





000
SAUS44 KMAF 091354
MTR6R6
METAR K6R6 091353Z AUTO 31006KT 03/M09 A3042 RMK AO1 SLP297
T00331094





000
SAUS44 KMAF 091352
MTRGDP
METAR KGDP 091351Z AUTO 06014KT 10SM CLR 02/M12 A3040 RMK AO2 SLP296
T00171117





000
SAUS44 KMAF 091254
MTR6R6
METAR K6R6 091253Z AUTO 29008KT 02/M10 A3041 RMK AO1 SLP292
T00221100





000
SAUS44 KMAF 091252
MTRGDP
METAR KGDP 091251Z AUTO 06015KT 10SM CLR 02/M12 A3040 RMK AO2 SLP288
T00221122





000
SAUS44 KMAF 091154
MTR6R6
METAR K6R6 091153Z AUTO 30008KT 03/M09 A3039 RMK AO1 SLP282
T00281094 10067 20022 53006





000
SAUS44 KMAF 091154
MTR6R6
METAR K6R6 091153Z AUTO 30008KT 03/M09 A3039 RMK AO1 SLP282
T00281094 10067 20022 53006





000
SAUS44 KMAF 091152
MTRGDP
METAR KGDP 091151Z AUTO 05014KT 10SM CLR 02/M12 A3038 RMK AO2 SLP281
T00171117 10039 20006 55000





000
SAUS44 KMAF 091054
MTR6R6
METAR K6R6 091053Z AUTO 31005KT 03/M09 A3037 RMK AO1 SLP276
T00281094





000
SAUS44 KMAF 091052
MTRGDP
METAR KGDP 091051Z AUTO 07008KT 10SM CLR 03/M12 A3037 RMK AO2 SLP270
T00281117





000
SAUS44 KMAF 091052
MTRGDP
METAR KGDP 091051Z AUTO 07008KT 10SM CLR 03/M12 A3037 RMK AO2 SLP270
T00281117





000
SAUS44 KMAF 090954
MTR6R6
METAR K6R6 090953Z AUTO 30004KT 03/M09 A3036 RMK AO1 SLP274
T00281094





000
SAUS44 KMAF 090951
MTRGDP
METAR KGDP 090951Z AUTO 09006KT 10SM CLR 03/M12 A3037 RMK AO2 SLP268
T00331117





000
SAUS44 KMAF 090854
MTR6R6
METAR K6R6 090853Z AUTO 33007KT 06/M09 A3037 RMK AO1 SLP273
T00611094 56007





000
SAUS44 KMAF 090851
MTRGDP
METAR KGDP 090851Z AUTO 07009KT 10SM CLR 03/M12 A3038 RMK AO2 SLP271
T00281117 57006





000
SAUS44 KMAF 090754
MTR6R6
METAR K6R6 090753Z AUTO 34008KT 06/M09 A3038 RMK AO1 SLP278
T00611094





000
SAUS44 KMAF 090751
MTRGDP
METAR KGDP 090751Z AUTO 06013KT 10SM CLR 01/M12 A3039 RMK AO2 SLP285
T00111117





000
SAUS44 KMAF 090654
MTR6R6
METAR K6R6 090653Z AUTO 31005KT 04/M09 A3038 RMK AO1 SLP280
T00391094





000
SAUS44 KMAF 090654
MTR6R6
METAR K6R6 090653Z AUTO 31005KT 04/M09 A3038 RMK AO1 SLP280
T00391094





000
SAUS44 KMAF 090652
MTRGDP
METAR KGDP 090651Z AUTO 05022KT 10SM CLR 01/M12 A3039 RMK AO2 PK WND
04028/0630 SLP292 T00061117 401111033





000
SAUS44 KMAF 090652
MTRGDP
METAR KGDP 090651Z AUTO 05022KT 10SM CLR 01/M12 A3039 RMK AO2 PK WND
04028/0630 SLP292 T00061117 401111033





000
SAUS44 KMAF 090554
MTR6R6
METAR K6R6 090553Z AUTO 31006KT 05/M09 A3039 RMK AO1 SLP284
T00501094 10144 20033 401560033 52004





000
SAUS44 KMAF 090551
MTRGDP
METAR KGDP 090551Z AUTO 05019KT 10SM CLR 02/M12 A3040 RMK AO2 SLP298
T00171117 10072 20017 51009





000
SAUS44 KMAF 090454
MTR6R6
METAR K6R6 090453Z AUTO 34005KT 05/M10 A3039 RMK AO1 SLP285
T00501100





000
SAUS44 KMAF 090452
MTRGDP
METAR KGDP 090451Z AUTO 06008KT 10SM CLR 04/M12 A3040 RMK AO2 SLP293
T00391122





000
SAUS44 KMAF 090354
MTR6R6
METAR K6R6 090353Z AUTO 32005KT 04/M10 A3038 RMK AO1 SLP283
T00441100





000
SAUS44 KMAF 090351
MTRGDP
METAR KGDP 090351Z AUTO 05005KT 10SM CLR 04/M12 A3038 RMK AO2 SLP288
T00441122





000
SAUS44 KMAF 090254
MTR6R6
METAR K6R6 090253Z AUTO 35004KT 07/M10 A3038 RMK AO1 SLP282
T00721100 53007





000
SAUS44 KMAF 090254
MTR6R6
METAR K6R6 090253Z AUTO 35004KT 07/M10 A3038 RMK AO1 SLP282
T00721100 53007





000
SAUS44 KMAF 090251
MTRGDP
METAR KGDP 090251Z AUTO 06011KT 10SM CLR 03/M12 A3037 RMK AO2 SLP295
T00331122 53001





000
SAUS44 KMAF 090154
MTR6R6
METAR K6R6 090153Z AUTO 01005KT 08/M10 A3037 RMK AO1 SLP277
T00781100





000
SAUS44 KMAF 090152
MTRGDP
METAR KGDP 090151Z AUTO 05011KT 10SM CLR 03/M12 A3037 RMK AO2 SLP294
T00331122





000
SAUS44 KMAF 090054
MTR6R6
METAR K6R6 090053Z AUTO 02006KT 11/M10 A3036 RMK AO1 SLP272
T01111100





000
SAUS44 KMAF 090054
MTR6R6
METAR K6R6 090053Z AUTO 02006KT 11/M10 A3036 RMK AO1 SLP272
T01111100





000
SAUS44 KMAF 090051
MTRGDP
METAR KGDP 090051Z AUTO 07013KT 10SM CLR 06/M12 A3036 RMK AO2 SLP287
T00561122





000
SAUS44 KMAF 082354
MTR6R6
METAR K6R6 082353Z AUTO 03007KT 14/M10 A3036 RMK AO1 SLP268
T01441100 10156 20122 55005





000
SAUS44 KMAF 082354
MTR6R6
METAR K6R6 082353Z AUTO 03007KT 14/M10 A3036 RMK AO1 SLP268
T01441100 10156 20122 55005





000
SAUS44 KMAF 082351
MTRGDP
METAR KGDP 082351Z AUTO 08015KT 10SM CLR 07/M12 A3037 RMK AO2 SLP284
T00721122 10111 20028 51003





000
SAUS44 KMAF 082351
MTRGDP
METAR KGDP 082351Z AUTO 08015KT 10SM CLR 07/M12 A3037 RMK AO2 SLP284
T00721122 10111 20028 51003





000
SAUS44 KMAF 082254
MTR6R6
METAR K6R6 082253Z AUTO 15/M11 A3036 RMK AO1 SLP266 T01501106





000
SAUS44 KMAF 082251
MTRGDP
METAR KGDP 082251Z AUTO 09009KT 10SM CLR 09/M12 A3037 RMK AO2 SLP274
T00891122





000
SAUS44 KMAF 082251
MTRGDP
METAR KGDP 082251Z AUTO 09009KT 10SM CLR 09/M12 A3037 RMK AO2 SLP274
T00891122





000
SAUS44 KMAF 082154
MTR6R6
METAR K6R6 082153Z AUTO 04007KT 15/M11 A3035 RMK AO1 SLP265
T01501106





000
SAUS44 KMAF 082151
MTRGDP
METAR KGDP 082151Z AUTO 09006KT 10SM CLR 09/M12 A3037 RMK AO2 SLP269
T00941117





    US Dept of Commerce
    National Oceanic and Atmospheric Administration
    National Weather Service
    1325 East West Highway
    Silver Spring, MD 20910
    Page Author: NWS Internet Services Team
Disclaimer
Information Quality
Credits
Glossary
Privacy Policy
Freedom of Information Act (FOIA)
About Us
Career Opportunities